Time;durP1;ratioP1;P1;durP2;ratioP2;P2;SDS_P1;SDS_P2;PMS_P1;PMS_P2;Temp;Humidity;BMP_temperature;BMP_pressure;BME280_temperature;BME280_humidity;BME280_pressure;Samples;Min_cycle;Max_cycle;Signal;HPM_P1;HPM_P2
2022/12/20 00:02:13;;;;;;;;;4.00;4.00;;;;;19.56;50.85;101263.30;105604;1279;19702;-66
2022/12/20 00:04:41;;;;;;;;;3.00;3.00;;;;;19.56;50.74;101265.27;105576;1283;19487;-64
2022/12/20 00:07:09;;;;;;;;;4.00;3.00;;;;;19.55;50.97;101264.64;105586;1279;25527;-64
2022/12/20 00:09:36;;;;;;;;;3.00;3.00;;;;;19.55;50.77;101264.59;105667;1282;18737;-64
2022/12/20 00:12:04;;;;;;;;;4.00;3.00;;;;;19.55;50.59;101267.33;105578;1289;19304;-64
2022/12/20 00:14:31;;;;;;;;;4.00;4.00;;;;;19.56;50.79;101264.93;105596;1279;18438;-65
2022/12/20 00:16:59;;;;;;;;;;;;;;;19.55;50.77;101264.95;105564;1274;18598;-64
2022/12/20 00:19:26;;;;;;;;;;;;;;;19.55;50.53;101263.36;105613;1272;19509;-65
2022/12/20 00:21:54;;;;;;;;;3.00;3.00;;;;;19.55;50.45;101267.14;105587;1282;18341;-65
2022/12/20 00:24:22;;;;;;;;;6.50;4.00;;;;;19.56;50.57;101265.98;105565;1272;21219;-64
2022/12/20 00:26:49;;;;;;;;;4.00;4.00;;;;;19.57;50.50;101265.18;105641;1280;19152;-65
2022/12/20 00:29:16;;;;;;;;;4.00;4.00;;;;;19.56;50.65;101260.71;105610;1295;21616;-65
2022/12/20 00:31:44;;;;;;;;;3.00;3.00;;;;;19.57;50.55;101262.48;105628;1297;18718;-63
2022/12/20 00:34:11;;;;;;;;;6.00;6.00;;;;;19.57;50.48;101255.54;105577;1288;21198;-63
2022/12/20 00:36:39;;;;;;;;;;;;;;;19.55;50.79;101250.80;105637;1271;20070;-63
2022/12/20 00:39:06;;;;;;;;;4.00;4.00;;;;;19.56;50.59;101248.59;105619;1295;18276;-64
2022/12/20 00:41:34;;;;;;;;;4.00;4.00;;;;;19.55;50.65;101243.03;105606;1279;19765;-63
2022/12/20 00:44:02;;;;;;;;;4.00;4.00;;;;;19.56;50.33;101240.60;105601;1280;23480;-64
2022/12/20 00:46:30;;;;;;;;;3.00;3.00;;;;;19.55;50.67;101233.05;105635;1272;20312;-63
2022/12/20 00:48:57;;;;;;;;;3.00;3.00;;;;;19.55;50.55;101244.49;105637;1288;20669;-63
2022/12/20 00:51:25;;;;;;;;;6.00;4.00;;;;;19.55;50.57;101246.80;105596;1288;20542;-64
2022/12/20 00:53:52;;;;;;;;;4.00;4.00;;;;;19.55;50.69;101242.99;105632;1276;18391;-66
2022/12/20 00:56:20;;;;;;;;;3.00;3.00;;;;;19.54;50.40;101241.91;105629;1298;19266;-63
2022/12/20 00:58:47;;;;;;;;;3.00;3.00;;;;;19.55;50.40;101239.80;105616;1272;18523;-63
2022/12/20 01:01:15;;;;;;;;;4.00;4.00;;;;;19.54;50.51;101244.63;105609;1279;22149;-63
2022/12/20 01:03:42;;;;;;;;;4.00;4.00;;;;;19.54;50.60;101246.59;105645;1298;19555;-65
2022/12/20 01:06:10;;;;;;;;;4.00;3.00;;;;;19.55;50.64;101252.86;105575;1272;18475;-64
2022/12/20 01:08:37;;;;;;;;;3.00;3.00;;;;;19.54;50.46;101253.09;105579;1295;19001;-64
2022/12/20 01:11:05;;;;;;;;;3.00;3.00;;;;;19.54;50.50;101252.41;105607;1288;19258;-63
2022/12/20 01:13:32;;;;;;;;;4.00;4.00;;;;;19.53;50.34;101251.08;105582;1288;22844;-64
2022/12/20 01:16:00;;;;;;;;;4.00;4.00;;;;;19.53;50.64;101240.23;105630;1291;18529;-64
2022/12/20 01:18:28;;;;;;;;;3.50;3.00;;;;;19.53;50.51;101237.31;105615;1289;19333;-64
2022/12/20 01:20:56;;;;;;;;;4.00;3.00;;;;;19.52;50.66;101234.83;105611;1272;21950;-64
2022/12/20 01:23:24;;;;;;;;;4.00;4.00;;;;;19.52;50.48;101231.26;105609;1279;18702;-65
2022/12/20 01:25:51;;;;;;;;;4.00;4.00;;;;;19.51;50.48;101223.33;105617;1298;20893;-65
2022/12/20 01:28:19;;;;;;;;;3.00;3.00;;;;;19.52;50.40;101224.55;105614;1292;19127;-65
2022/12/20 01:30:46;;;;;;;;;3.00;3.00;;;;;19.51;50.64;101214.80;105635;1282;22776;-64
2022/12/20 01:33:14;;;;;;;;;6.00;4.00;;;;;19.52;50.69;101220.00;105627;1279;19289;-64
2022/12/20 01:35:41;;;;;;;;;4.00;4.00;;;;;19.51;50.83;101225.86;105598;1282;22881;-64
2022/12/20 01:38:09;;;;;;;;;3.00;3.00;;;;;19.52;50.54;101233.36;105619;1289;22323;-64
2022/12/20 01:40:36;;;;;;;;;5.00;4.00;;;;;19.51;50.61;101232.92;105642;1296;20872;-66
2022/12/20 01:43:04;;;;;;;;;4.00;3.00;;;;;19.51;50.78;101223.70;105630;1297;20046;-64
2022/12/20 01:45:31;;;;;;;;;3.50;3.50;;;;;19.51;50.64;101208.08;105589;1282;18539;-64
2022/12/20 01:47:59;;;;;;;;;4.00;3.00;;;;;19.50;50.66;101198.56;105583;1296;19400;-64
2022/12/20 01:50:27;;;;;;;;;4.00;3.00;;;;;19.50;50.40;101194.42;105579;1281;23174;-64
2022/12/20 01:52:55;;;;;;;;;4.00;3.00;;;;;19.50;50.63;101190.41;105648;1282;22758;-64
2022/12/20 01:55:22;;;;;;;;;3.00;3.00;;;;;19.51;50.67;101191.21;105553;1285;19275;-64
2022/12/20 01:57:50;;;;;;;;;1.00;1.00;;;;;19.52;50.69;101190.10;105621;1274;19490;-64
2022/12/20 02:00:18;;;;;;;;;3.00;3.00;;;;;19.50;50.54;101185.69;105606;1298;18477;-64
2022/12/20 02:02:45;;;;;;;;;4.00;3.00;;;;;19.50;50.39;101182.23;105621;1279;19267;-64
2022/12/20 02:05:13;;;;;;;;;3.00;3.00;;;;;19.52;50.57;101179.60;105605;1291;19566;-64
2022/12/20 02:07:41;;;;;;;;;3.50;3.50;;;;;19.51;50.76;101180.75;105557;1275;18482;-63
2022/12/20 02:10:08;;;;;;;;;6.00;4.00;;;;;19.50;50.57;101176.42;105624;1291;19233;-64
2022/12/20 02:12:35;;;;;;;;;;;;;;;19.51;50.41;101176.96;105626;1297;22092;-64
2022/12/20 02:15:04;;;;;;;;;3.00;3.00;;;;;19.52;50.55;101179.73;105622;1272;18318;-63
2022/12/20 02:17:31;;;;;;;;;3.50;3.00;;;;;19.50;50.42;101173.19;105636;1281;19263;-64
2022/12/20 02:19:59;;;;;;;;;4.00;4.00;;;;;19.50;50.44;101180.48;105541;1298;18412;-64
2022/12/20 02:22:27;;;;;;;;;3.00;3.00;;;;;19.50;50.61;101174.64;105552;1279;18609;-65
2022/12/20 02:24:54;;;;;;;;;3.00;3.00;;;;;19.51;50.47;101173.70;105730;1272;19273;-65
2022/12/20 02:27:21;;;;;;;;;4.00;4.00;;;;;19.50;50.57;101183.34;105587;1282;19996;-66
2022/12/20 02:29:49;;;;;;;;;3.00;3.00;;;;;19.49;50.54;101177.60;105605;1298;18568;-64
2022/12/20 02:32:16;;;;;;;;;4.00;4.00;;;;;19.50;50.41;101183.00;105629;1297;19260;-64
2022/12/20 02:34:44;;;;;;;;;3.00;3.00;;;;;19.49;50.52;101183.61;105596;1279;22465;-64
2022/12/20 02:37:11;;;;;;;;;3.00;3.00;;;;;19.49;50.46;101179.63;105679;1281;23531;-64
2022/12/20 02:39:39;;;;;;;;;3.00;3.00;;;;;19.49;50.46;101182.15;105637;1276;20952;-64
2022/12/20 02:42:06;;;;;;;;;4.00;4.00;;;;;19.50;50.72;101182.84;105624;1282;18557;-64
2022/12/20 02:47:19;;;;;;;;;3.00;3.00;;;;;19.48;50.65;101174.44;105626;1288;22129;-64
2022/12/20 02:49:46;;;;;;;;;4.00;4.00;;;;;19.49;50.44;101180.96;105608;1301;18440;-64
2022/12/20 02:52:13;;;;;;;;;3.00;3.00;;;;;19.48;50.50;101185.13;105641;1272;18520;-64
2022/12/20 02:54:41;;;;;;;;;3.00;3.00;;;;;19.48;50.48;101188.77;105658;1289;21169;-64
2022/12/20 02:57:08;;;;;;;;;3.00;3.00;;;;;19.48;50.69;101190.10;105606;1282;18302;-64
2022/12/20 02:59:36;;;;;;;;;4.00;4.00;;;;;19.47;50.49;101182.73;105632;1282;18480;-64
2022/12/20 03:02:03;;;;;;;;;3.00;3.00;;;;;19.48;50.52;101181.02;105592;1289;22830;-64
2022/12/20 03:04:31;;;;;;;;;4.00;3.00;;;;;19.48;50.69;101180.80;105594;1289;18967;-64
2022/12/20 03:06:58;;;;;;;;;3.00;3.00;;;;;19.48;50.70;101183.95;105703;1297;18501;-64
2022/12/20 03:09:26;;;;;;;;;6.00;4.00;;;;;19.48;50.61;101186.09;105576;1296;22665;-64
2022/12/20 03:11:54;;;;;;;;;3.00;3.00;;;;;19.48;50.69;101174.37;105571;1281;21936;-64
2022/12/20 03:14:21;;;;;;;;;3.00;3.00;;;;;19.48;50.57;101176.30;105639;1282;18520;-65
2022/12/20 03:16:49;;;;;;;;;;;;;;;19.48;50.48;101182.86;105578;1280;20672;-63
2022/12/20 03:19:16;;;;;;;;;4.00;4.00;;;;;19.48;50.58;101190.79;105499;1289;22578;-63
2022/12/20 03:21:44;;;;;;;;;3.00;3.00;;;;;19.47;50.71;101188.16;105643;1301;18427;-64
2022/12/20 03:24:12;;;;;;;;;3.50;3.50;;;;;19.47;50.64;101186.73;105626;1298;19222;-63
2022/12/20 03:26:40;;;;;;;;;4.00;3.50;;;;;19.48;50.52;101191.33;105614;1296;19798;-64
2022/12/20 03:29:07;;;;;;;;;3.00;3.00;;;;;19.48;50.56;101195.70;105584;1282;22142;-64
2022/12/20 03:31:35;;;;;;;;;4.00;3.00;;;;;19.47;50.61;101196.55;105656;1280;20813;-64
2022/12/20 03:34:02;;;;;;;;;3.00;3.00;;;;;19.48;50.43;101202.44;105624;1297;18349;-63
2022/12/20 03:36:30;;;;;;;;;3.00;3.00;;;;;19.46;50.51;101203.11;105586;1289;18751;-63
2022/12/20 03:38:57;;;;;;;;;4.00;3.00;;;;;19.47;50.51;101205.73;105575;1275;19305;-64
2022/12/20 03:41:24;;;;;;;;;3.00;3.00;;;;;19.47;50.51;101190.73;105554;1279;22589;-64
2022/12/20 03:43:52;;;;;;;;;3.00;3.00;;;;;19.47;50.66;101189.69;105561;1276;21473;-64
2022/12/20 03:46:19;;;;;;;;;3.00;3.00;;;;;19.46;50.58;101185.17;105626;1280;19429;-64
2022/12/20 03:48:47;;;;;;;;;3.00;3.00;;;;;19.45;50.39;101180.20;105656;1286;18410;-65
2022/12/20 03:51:14;;;;;;;;;;;;;;;19.46;50.72;101182.30;105605;1272;22818;-64
2022/12/20 03:53:42;;;;;;;;;3.50;3.00;;;;;19.46;50.63;101188.63;105586;1282;19186;-65
2022/12/20 03:56:09;;;;;;;;;4.00;3.00;;;;;19.46;50.48;101186.63;105635;1280;18470;-65
2022/12/20 03:58:38;;;;;;;;;3.50;3.50;;;;;19.45;50.50;101187.11;105630;1288;22691;-64
2022/12/20 04:01:05;;;;;;;;;6.00;4.00;;;;;19.46;50.67;101185.80;105646;1298;19312;-65
2022/12/20 04:03:33;;;;;;;;;3.00;3.00;;;;;19.46;50.83;101190.13;105543;1272;22078;-65
2022/12/20 04:06:00;;;;;;;;;2.00;2.00;;;;;19.46;50.67;101184.15;105593;1297;18623;-65
2022/12/20 04:08:28;;;;;;;;;2.00;2.00;;;;;19.46;50.47;101174.02;105598;1281;22079;-65
2022/12/20 04:13:40;;;;;;;;;3.00;3.00;;;;;19.46;50.51;101166.00;105598;1272;18634;-65
2022/12/20 04:16:08;;;;;;;;;;;;;;;19.45;50.72;101162.29;105661;1272;19364;-65
2022/12/20 04:18:35;;;;;;;;;;;;;;;19.44;50.63;101160.37;105600;1297;28328;-64
2022/12/20 04:21:02;;;;;;;;;4.00;3.00;;;;;19.45;50.60;101161.58;105640;1282;20669;-65
2022/12/20 04:23:30;;;;;;;;;2.00;2.00;;;;;19.45;50.67;101167.73;105606;1276;22696;-64
2022/12/20 04:25:57;;;;;;;;;3.00;2.00;;;;;19.46;50.77;101166.20;105631;1297;18334;-64
2022/12/20 04:28:25;;;;;;;;;3.00;3.00;;;;;19.45;50.67;101157.77;105627;1281;21720;-64
2022/12/20 04:30:52;;;;;;;;;4.00;3.00;;;;;19.46;50.55;101157.55;105641;1279;20685;-64
2022/12/20 04:33:20;;;;;;;;;3.00;3.00;;;;;19.44;50.40;101156.94;105581;1276;18406;-63
2022/12/20 04:35:47;;;;;;;;;3.00;3.00;;;;;19.45;50.49;101153.80;105628;1283;18405;-64
2022/12/20 04:38:15;;;;;;;;;3.00;3.00;;;;;19.45;50.75;101159.05;105593;1297;19338;-64
2022/12/20 04:40:42;;;;;;;;;3.00;3.00;;;;;19.45;50.71;101158.88;105584;1281;21560;-63
2022/12/20 04:43:10;;;;;;;;;3.00;3.00;;;;;19.44;50.64;101156.40;105598;1290;19823;-64
2022/12/20 04:45:37;;;;;;;;;3.50;3.50;;;;;19.44;50.62;101168.41;105665;1276;19507;-64
2022/12/20 04:48:04;;;;;;;;;1.00;1.00;;;;;19.44;50.67;101171.05;105645;1272;18567;-62
2022/12/20 04:50:32;;;;;;;;;3.00;1.00;;;;;19.44;50.57;101163.99;105634;1301;18764;-63
2022/12/20 04:55:44;;;;;;;;;4.00;4.00;;;;;19.43;50.74;101146.73;105601;1279;18527;-62
2022/12/20 04:58:12;;;;;;;;;1.00;1.00;;;;;19.43;50.68;101144.22;105613;1295;21293;-64
2022/12/20 05:00:39;;;;;;;;;3.00;3.00;;;;;19.44;50.48;101152.83;105634;1279;19328;-64
2022/12/20 05:03:07;;;;;;;;;4.00;3.00;;;;;19.43;50.68;101154.17;105641;1285;19897;-64
2022/12/20 05:05:34;;;;;;;;;6.00;4.00;;;;;19.43;50.75;101156.27;105640;1273;18494;-64
2022/12/20 05:08:02;;;;;;;;;;;;;;;19.43;50.73;101163.45;105588;1289;22343;-65
2022/12/20 05:10:29;;;;;;;;;3.00;3.00;;;;;19.42;50.58;101163.10;105643;1282;21292;-64
2022/12/20 05:12:57;;;;;;;;;3.00;3.00;;;;;19.42;50.64;101160.25;105645;1297;19529;-65
2022/12/20 05:15:24;;;;;;;;;3.50;3.00;;;;;19.43;50.67;101158.01;105606;1297;19486;-63
2022/12/20 05:17:58;;;;;;;;;3.00;1.00;;;;;19.42;50.78;101166.58;105589;1275;22704;-64
2022/12/20 05:20:25;;;;;;;;;3.00;3.00;;;;;19.42;50.59;101171.27;105610;1279;22727;-62
2022/12/20 05:28:24;;;;;;;;;3.00;1.67;;;;;19.43;50.67;101165.08;105565;1291;94224;-63
2022/12/20 05:30:51;;;;;;;;;3.00;3.00;;;;;19.43;50.58;101168.34;105655;1295;19387;-63
2022/12/20 05:33:19;;;;;;;;;3.00;3.00;;;;;19.42;50.91;101166.60;105591;1279;18333;-63
2022/12/20 05:35:46;;;;;;;;;4.00;3.00;;;;;19.42;50.76;101161.85;105590;1279;22988;-63
2022/12/20 05:38:14;;;;;;;;;;;;;;;19.41;50.76;101156.34;105590;1272;21369;-63
2022/12/20 05:40:41;;;;;;;;;3.00;3.00;;;;;19.42;50.59;101155.55;105594;1279;18401;-63
2022/12/20 05:43:09;;;;;;;;;3.00;3.00;;;;;19.42;50.72;101154.61;105612;1279;18931;-63
2022/12/20 05:45:37;;;;;;;;;4.00;4.00;;;;;19.42;50.59;101149.62;105630;1280;19537;-65
2022/12/20 05:48:04;;;;;;;;;3.00;3.00;;;;;19.42;50.75;101147.74;105631;1279;18510;-65
2022/12/20 05:50:32;;;;;;;;;4.00;3.00;;;;;19.41;50.77;101143.64;105613;1279;18606;-63
2022/12/20 05:52:59;;;;;;;;;3.50;3.00;;;;;19.41;50.64;101142.91;105605;1272;19547;-63
2022/12/20 05:55:27;;;;;;;;;3.00;3.00;;;;;19.42;50.69;101139.94;105596;1289;18777;-63
2022/12/20 05:57:55;;;;;;;;;3.00;3.00;;;;;19.41;50.86;101136.56;105603;1290;18712;-63
2022/12/20 06:00:23;;;;;;;;;3.50;3.50;;;;;19.42;50.62;101131.30;105590;1282;19287;-63
2022/12/20 06:02:50;;;;;;;;;3.00;3.00;;;;;19.42;50.62;101123.48;105627;1288;18348;-65
2022/12/20 06:05:18;;;;;;;;;3.00;3.00;;;;;19.41;50.69;101122.84;105589;1280;20208;-63
2022/12/20 06:07:46;;;;;;;;;3.00;3.00;;;;;19.41;50.88;101126.77;105589;1272;19349;-63
2022/12/20 06:10:13;;;;;;;;;4.00;4.00;;;;;19.41;51.01;101124.98;105598;1281;18665;-64
2022/12/20 06:12:41;;;;;;;;;3.00;3.00;;;;;19.41;50.85;101124.77;105643;1289;20069;-64
2022/12/20 06:15:09;;;;;;;;;4.00;4.00;;;;;19.41;50.73;101130.04;105589;1279;22946;-64
2022/12/20 06:17:37;;;;;;;;;4.00;3.00;;;;;19.42;50.73;101133.10;105599;1272;22205;-64
2022/12/20 06:20:04;;;;;;;;;3.00;3.00;;;;;19.42;50.68;101138.16;105555;1279;18526;-64
2022/12/20 06:22:32;;;;;;;;;4.00;4.00;;;;;19.42;50.69;101139.36;105597;1296;19887;-63
2022/12/20 06:25:00;;;;;;;;;3.00;3.00;;;;;19.42;50.65;101135.81;105632;1282;23180;-64
2022/12/20 06:27:28;;;;;;;;;3.00;3.00;;;;;19.40;50.79;101140.84;105616;1279;19404;-64
2022/12/20 06:29:55;;;;;;;;;3.50;3.50;;;;;19.41;50.90;101147.54;105613;1295;19289;-63
2022/12/20 06:32:23;;;;;;;;;4.00;4.00;;;;;19.40;50.71;101141.48;105701;1282;19579;-63
2022/12/20 06:34:50;;;;;;;;;3.00;2.00;;;;;19.40;50.82;101143.97;105617;1275;20015;-65
2022/12/20 06:37:18;;;;;;;;;3.00;3.00;;;;;19.40;50.69;101145.94;105589;1282;22513;-64
2022/12/20 06:39:45;;;;;;;;;3.00;3.00;;;;;19.40;50.93;101142.67;105618;1282;19766;-65
2022/12/20 06:42:13;;;;;;;;;3.00;3.00;;;;;19.40;50.68;101144.64;105615;1295;20155;-64
2022/12/20 06:44:40;;;;;;;;;4.00;3.00;;;;;19.40;50.68;101145.63;105585;1289;19400;-63
2022/12/20 06:47:07;;;;;;;;;5.00;5.00;;;;;19.40;50.92;101144.34;105538;1279;18443;-64
2022/12/20 06:49:35;;;;;;;;;5.00;3.50;;;;;19.39;50.73;101145.30;105584;1295;18679;-64
2022/12/20 06:52:02;;;;;;;;;4.00;4.00;;;;;19.39;50.83;101148.20;105719;1288;19454;-64
2022/12/20 06:54:30;;;;;;;;;3.00;3.00;;;;;19.39;50.96;101153.47;105606;1272;18384;-64
2022/12/20 06:56:57;;;;;;;;;4.00;3.00;;;;;19.39;50.89;101154.90;105654;1282;18504;-63
2022/12/20 06:59:25;;;;;;;;;3.00;3.00;;;;;19.39;50.73;101158.02;105566;1279;21385;-64
2022/12/20 07:01:53;;;;;;;;;3.50;3.50;;;;;19.39;50.71;101164.20;105655;1272;18383;-63
2022/12/20 07:04:21;;;;;;;;;3.00;3.00;;;;;19.39;50.68;101172.73;105656;1294;18428;-65
2022/12/20 07:06:48;;;;;;;;;3.50;3.00;;;;;19.39;50.91;101174.10;105680;1280;21008;-64
2022/12/20 07:09:16;;;;;;;;;1.00;1.00;;;;;19.39;51.01;101175.77;105633;1289;18847;-65
2022/12/20 07:11:43;;;;;;;;;4.00;3.00;;;;;19.39;50.93;101176.36;105606;1279;18731;-65
2022/12/20 07:14:11;;;;;;;;;1.00;1.00;;;;;19.40;50.96;101171.48;105590;1272;21022;-65
2022/12/20 07:16:40;;;;;;;;;3.00;3.00;;;;;19.41;51.03;101172.92;105601;1297;18321;-65
2022/12/20 07:19:07;;;;;;;;;4.00;3.00;;;;;19.41;51.07;101177.54;105521;1275;22375;-64
2022/12/20 07:21:35;;;;;;;;;3.50;3.00;;;;;19.40;51.15;101179.83;105602;1282;19495;-62
2022/12/20 07:24:02;;;;;;;;;1.00;1.00;;;;;19.44;51.14;101181.80;105638;1280;18284;-65
2022/12/20 07:26:30;;;;;;;;;3.00;3.00;;;;;19.49;51.10;101178.03;105618;1272;20000;-66
2022/12/20 07:28:58;;;;;;;;;4.00;4.00;;;;;19.53;51.49;101180.22;105683;1296;19280;-66
2022/12/20 07:31:25;;;;;;;;;3.50;3.50;;;;;19.55;51.47;101182.34;105738;1297;18414;-67
2022/12/20 07:33:53;;;;;;;;;4.00;4.00;;;;;19.57;51.66;101189.17;105689;1296;22417;-66
2022/12/20 07:36:20;;;;;;;;;4.00;4.00;;;;;19.58;51.92;101195.13;105640;1289;19574;-67
2022/12/20 07:38:48;;;;;;;;;4.00;4.00;;;;;19.59;52.12;101203.48;105503;1279;18340;-67
2022/12/20 07:41:15;;;;;;;;;3.33;3.33;;;;;19.61;52.11;101210.19;105589;1275;18816;-68
2022/12/20 07:43:43;;;;;;;;;4.00;3.00;;;;;19.62;52.31;101205.94;105647;1289;19486;-67
2022/12/20 07:46:10;;;;;;;;;6.00;4.00;;;;;19.64;52.60;101199.78;105728;1298;19717;-66
2022/12/20 07:48:38;;;;;;;;;4.00;4.00;;;;;19.63;52.62;101195.65;105672;1294;18905;-67
2022/12/20 07:51:05;;;;;;;;;4.00;4.00;;;;;19.64;52.57;101190.70;105582;1272;19134;-69
2022/12/20 07:53:33;;;;;;;;;4.00;4.00;;;;;19.66;52.63;101189.41;105596;1279;20451;-66
2022/12/20 07:56:00;;;;;;;;;3.50;3.50;;;;;19.64;52.57;101183.80;105666;1288;18498;-65
2022/12/20 07:58:28;;;;;;;;;6.00;4.00;;;;;19.63;52.60;101178.83;105535;1279;19412;-66
2022/12/20 08:00:55;;;;;;;;;4.00;4.00;;;;;19.61;53.00;101182.61;105680;1282;19897;-68
2022/12/20 08:03:22;;;;;;;;;3.00;3.00;;;;;19.59;53.07;101186.66;105612;1296;21929;-66
2022/12/20 08:05:51;;;;;;;;;5.00;5.00;;;;;19.59;52.88;101186.08;105566;1298;22058;-67
2022/12/20 08:08:18;;;;;;;;;6.00;4.00;;;;;19.59;53.11;101179.89;105591;1289;18438;-66
2022/12/20 08:10:46;;;;;;;;;6.00;6.00;;;;;19.60;53.02;101169.14;105544;1280;18896;-66
2022/12/20 08:13:14;;;;;;;;;4.00;4.00;;;;;19.61;53.09;101162.49;105637;1297;20722;-66
2022/12/20 08:15:42;;;;;;;;;3.00;3.00;;;;;19.61;52.93;101159.39;105638;1282;18448;-67
2022/12/20 08:18:10;;;;;;;;;5.00;4.00;;;;;19.64;53.14;101159.38;105614;1279;22460;-65
2022/12/20 08:20:37;;;;;;;;;4.00;4.00;;;;;19.64;53.26;101166.70;105718;1297;19256;-66
2022/12/20 08:23:04;;;;;;;;;6.00;6.00;;;;;19.62;53.23;101170.93;105625;1280;20817;-66
2022/12/20 08:25:32;;;;;;;;;6.00;6.00;;;;;19.61;53.33;101173.88;105517;1272;22677;-66
2022/12/20 08:28:01;;;;;;;;;6.00;4.00;;;;;19.61;53.18;101176.42;105595;1280;19323;-67
2022/12/20 08:30:28;;;;;;;;;9.00;6.00;;;;;19.61;53.12;101176.63;105640;1279;23030;-66
2022/12/20 08:32:56;;;;;;;;;7.00;6.00;;;;;19.60;53.33;101176.23;105615;1272;20300;-68
2022/12/20 08:35:23;;;;;;;;;9.00;8.00;;;;;19.58;53.21;101168.97;105657;1275;19588;-67
2022/12/20 08:37:51;;;;;;;;;6.00;6.00;;;;;19.56;53.16;101173.31;105634;1279;18409;-68
2022/12/20 08:40:19;;;;;;;;;6.00;6.00;;;;;19.54;53.26;101177.88;105669;1297;18579;-66
2022/12/20 08:42:46;;;;;;;;;6.00;6.00;;;;;19.53;53.08;101182.16;105745;1282;20937;-66
2022/12/20 08:45:14;;;;;;;;;4.00;4.00;;;;;19.54;52.92;101186.10;105634;1280;18414;-67
2022/12/20 08:47:41;;;;;;;;;6.00;4.00;;;;;19.52;52.93;101186.43;105632;1279;23787;-66
2022/12/20 08:50:09;;;;;;;;;7.00;7.00;;;;;19.53;53.14;101186.14;105708;1295;20448;-66
2022/12/20 08:52:36;;;;;;;;;6.00;4.00;;;;;19.55;53.21;101185.09;105489;1279;23421;-67
2022/12/20 08:55:04;;;;;;;;;4.00;4.00;;;;;19.55;52.99;101183.93;105621;1279;18466;-67
2022/12/20 08:57:32;;;;;;;;;7.50;6.00;;;;;19.57;53.01;101184.61;105617;1279;22108;-68
2022/12/20 08:59:59;;;;;;;;;6.00;6.00;;;;;19.59;53.13;101181.95;105624;1288;18367;-67
2022/12/20 09:02:26;;;;;;;;;6.50;6.50;;;;;19.61;53.36;101180.13;105547;1272;18482;-66
2022/12/20 09:04:55;;;;;;;;;4.00;4.00;;;;;19.61;53.66;101181.18;105621;1279;22203;-66
2022/12/20 09:07:23;;;;;;;;;6.00;6.00;;;;;19.62;53.59;101183.04;105587;1295;20033;-67
2022/12/20 09:09:50;;;;;;;;;8.00;6.50;;;;;19.63;54.17;101182.46;105637;1279;18514;-68
2022/12/20 09:12:17;;;;;;;;;6.00;6.00;;;;;19.63;54.29;101183.13;105600;1279;20836;-67
2022/12/20 09:14:45;;;;;;;;;4.00;4.00;;;;;19.64;54.51;101175.64;105669;1296;19651;-67
2022/12/20 09:17:13;;;;;;;;;6.00;6.00;;;;;19.63;54.45;101170.08;105653;1279;18533;-67
2022/12/20 09:19:40;;;;;;;;;6.00;6.00;;;;;19.65;54.40;101171.71;105611;1279;19271;-67
2022/12/20 09:22:08;;;;;;;;;7.00;7.00;;;;;19.66;54.48;101168.72;105698;1272;18406;-66
2022/12/20 09:24:37;;;;;;;;;6.00;6.00;;;;;19.66;54.83;101163.92;105628;1279;23131;-67
2022/12/20 09:27:04;;;;;;;;;6.50;6.00;;;;;19.65;54.95;101154.85;105700;1279;19238;-68
2022/12/20 09:29:32;;;;;;;;;7.00;7.00;;;;;19.66;54.70;101144.79;105659;1296;19708;-66
2022/12/20 09:32:00;;;;;;;;;7.00;7.00;;;;;19.66;54.91;101133.02;105630;1295;19920;-66
2022/12/20 09:34:27;;;;;;;;;9.00;7.00;;;;;19.66;55.16;101136.23;105636;1272;22670;-68
2022/12/20 09:36:55;;;;;;;;;5.00;4.50;;;;;19.66;55.19;101145.06;105670;1297;18890;-67
2022/12/20 09:39:22;;;;;;;;;8.00;6.00;;;;;19.66;55.07;101147.60;105566;1279;18656;-67
2022/12/20 09:41:49;;;;;;;;;7.00;6.00;;;;;19.69;55.13;101146.75;105580;1272;19689;-68
2022/12/20 09:44:17;;;;;;;;;6.00;6.00;;;;;19.71;55.12;101150.74;105568;1297;18377;-69
2022/12/20 09:46:45;;;;;;;;;;;;;;;19.71;55.18;101153.46;105600;1279;18708;-66
2022/12/20 09:49:12;;;;;;;;;6.50;6.00;;;;;19.69;55.10;101158.59;105768;1303;22705;-67
2022/12/20 09:51:40;;;;;;;;;7.00;6.50;;;;;19.69;55.24;101165.34;105691;1272;18615;-67
2022/12/20 09:54:07;;;;;;;;;6.00;6.00;;;;;19.70;55.07;101163.39;105632;1298;18699;-67
2022/12/20 09:56:34;;;;;;;;;6.00;6.00;;;;;19.70;55.05;101165.21;105636;1295;19280;-67
2022/12/20 09:59:02;;;;;;;;;8.00;8.00;;;;;19.70;55.17;101152.16;105656;1294;20770;-67
2022/12/20 10:01:29;;;;;;;;;7.00;7.00;;;;;19.69;55.30;101142.27;105650;1281;22404;-66
2022/12/20 10:03:57;;;;;;;;;5.00;5.00;;;;;19.68;55.41;101137.66;105698;1295;20968;-66
2022/12/20 10:06:24;;;;;;;;;9.00;7.00;;;;;19.66;55.50;101133.67;105583;1298;19832;-67
2022/12/20 10:08:52;;;;;;;;;9.00;9.00;;;;;19.67;55.03;101132.55;105597;1279;21895;-66
2022/12/20 10:11:19;;;;;;;;;;;;;;;19.67;54.89;101130.34;105592;1272;20723;-65
2022/12/20 10:13:47;;;;;;;;;6.00;6.00;;;;;19.68;54.70;101124.92;105601;1272;19600;-67
2022/12/20 10:16:15;;;;;;;;;4.00;4.00;;;;;19.69;54.86;101121.45;105591;1279;18503;-67
2022/12/20 10:18:42;;;;;;;;;9.00;7.00;;;;;19.69;54.73;101125.20;105523;1275;19129;-66
2022/12/20 10:21:10;;;;;;;;;7.00;5.00;;;;;19.68;54.48;101126.00;105605;1297;18402;-67
2022/12/20 10:23:37;;;;;;;;;;;;;;;19.67;54.52;101119.42;105618;1272;20201;-67
2022/12/20 10:26:05;;;;;;;;;6.00;6.00;;;;;19.68;54.46;101112.44;105645;1282;19427;-68
2022/12/20 10:28:32;;;;;;;;;4.50;4.00;;;;;19.69;54.71;101106.77;105594;1272;18415;-68
2022/12/20 10:30:59;;;;;;;;;7.00;5.00;;;;;19.68;54.48;101107.39;105621;1294;18872;-67
2022/12/20 10:33:27;;;;;;;;;4.00;4.00;;;;;19.66;54.26;101110.09;105618;1288;19275;-68
2022/12/20 10:35:54;;;;;;;;;7.00;7.00;;;;;19.66;54.09;101115.63;105670;1272;18398;-67
2022/12/20 10:38:22;;;;;;;;;5.00;5.00;;;;;19.64;54.35;101116.36;105649;1297;19204;-68
2022/12/20 10:40:50;;;;;;;;;6.00;6.00;;;;;19.63;54.13;101125.02;105649;1291;19262;-68
2022/12/20 10:43:18;;;;;;;;;5.00;4.00;;;;;19.62;54.45;101115.83;105692;1288;22647;-68
2022/12/20 10:45:46;;;;;;;;;7.00;6.00;;;;;19.61;54.27;101113.52;105670;1297;22287;-69
2022/12/20 10:48:13;;;;;;;;;7.00;7.00;;;;;19.61;54.27;101108.29;105668;1297;19279;-66
2022/12/20 10:50:41;;;;;;;;;6.00;5.33;;;;;19.60;54.25;101108.95;105629;1275;18613;-67
2022/12/20 10:53:08;;;;;;;;;;;;;;;19.60;54.21;101101.20;105654;1295;19856;-67
2022/12/20 10:55:36;;;;;;;;;8.00;7.50;;;;;19.58;54.29;101093.61;105663;1272;20458;-66
2022/12/20 10:58:04;;;;;;;;;7.00;4.00;;;;;19.58;54.08;101087.39;105684;1297;22638;-66
2022/12/20 11:00:31;;;;;;;;;6.00;4.00;;;;;19.58;54.01;101077.42;105655;1279;22730;-68
2022/12/20 11:02:59;;;;;;;;;;;;;;;19.58;53.86;101076.74;105611;1297;19795;-65
2022/12/20 11:05:26;;;;;;;;;9.00;7.00;;;;;19.58;53.99;101074.74;105604;1288;18285;-67
2022/12/20 11:07:54;;;;;;;;;7.00;6.50;;;;;19.58;53.96;101074.54;105596;1275;19495;-66
2022/12/20 11:10:22;;;;;;;;;5.00;4.00;;;;;19.59;53.90;101078.95;105630;1297;20749;-66
2022/12/20 11:12:49;;;;;;;;;6.00;6.00;;;;;19.62;53.94;101076.85;105648;1289;20435;-66
2022/12/20 11:15:17;;;;;;;;;97.50;72.50;;;;;19.66;54.29;101076.02;105556;1279;18666;-68
2022/12/20 11:17:45;;;;;;;;;115.00;92.00;;;;;19.72;55.03;101078.84;105625;1272;19674;-68
2022/12/20 11:20:13;;;;;;;;;94.50;73.00;;;;;19.79;55.54;101082.86;105546;1282;18913;-67
2022/12/20 11:22:41;;;;;;;;;65.00;53.00;;;;;19.82;56.51;101087.57;105567;1282;18951;-67
2022/12/20 11:25:09;;;;;;;;;52.00;45.00;;;;;19.82;56.84;101083.09;105603;1280;22302;-67
2022/12/20 11:27:36;;;;;;;;;58.00;43.50;;;;;19.79;57.05;101074.69;105615;1288;23381;-67
2022/12/20 11:30:04;;;;;;;;;49.00;42.00;;;;;19.76;56.73;101072.61;105573;1282;20154;-66
2022/12/20 11:32:31;;;;;;;;;;;;;;;19.77;57.03;101070.75;105561;1300;19487;-67
2022/12/20 11:34:59;;;;;;;;;34.00;30.00;;;;;19.75;56.70;101063.30;105569;1282;20088;-67